createdAt,value
2022-10-13T00:01:14.195Z,16.95
2022-10-13T00:03:41.965Z,17.10
2022-10-13T00:06:10.324Z,16.45
2022-10-13T00:08:37.671Z,15.82
2022-10-13T00:11:16.500Z,16.13
2022-10-13T00:13:43.781Z,17.23
2022-10-13T00:16:11.346Z,16.48
2022-10-13T00:18:38.361Z,16.45
2022-10-13T00:21:13.969Z,16.20
2022-10-13T00:23:40.829Z,17.20
2022-10-13T00:26:09.887Z,15.85
2022-10-13T00:28:36.813Z,15.30
2022-10-13T00:31:03.769Z,14.80
2022-10-13T00:33:30.309Z,16.67
2022-10-13T00:35:56.889Z,15.55
2022-10-13T00:38:23.522Z,15.35
2022-10-13T00:40:54.653Z,16.63
2022-10-13T00:43:26.692Z,17.52
2022-10-13T00:45:54.064Z,17.63
2022-10-13T00:48:25.217Z,18.85
2022-10-13T00:50:51.795Z,18.17
2022-10-13T00:53:18.972Z,16.70
2022-10-13T00:55:45.712Z,17.50
2022-10-13T00:58:16.278Z,17.23
2022-10-13T01:00:47.739Z,16.52
2022-10-13T01:03:14.504Z,16.98
2022-10-13T01:05:41.106Z,17.63
2022-10-13T01:08:07.865Z,17.77
2022-10-13T01:10:52.487Z,17.85
2022-10-13T01:13:29.171Z,18.13
2022-10-13T01:15:58.109Z,16.65
2022-10-13T01:18:36.707Z,18.85
2022-10-13T01:21:12.327Z,18.95
2022-10-13T01:24:22.787Z,20.23
2022-10-13T01:26:49.281Z,18.13
2022-10-13T01:30:00.238Z,19.27
2022-10-13T01:32:57.652Z,18.35
2022-10-13T01:35:41.698Z,16.92
2022-10-13T01:38:30.243Z,17.48
2022-10-13T01:41:29.696Z,15.93
2022-10-13T01:44:21.353Z,17.58
2022-10-13T01:46:47.941Z,17.02
2022-10-13T01:49:16.990Z,17.25
2022-10-13T01:51:43.568Z,16.83
2022-10-13T01:54:10.402Z,16.25
2022-10-13T01:56:36.987Z,15.35
2022-10-13T01:59:09.001Z,16.40
2022-10-13T02:02:00.872Z,15.07
2022-10-13T02:05:04.118Z,14.18
2022-10-13T02:07:44.584Z,14.30
2022-10-13T02:10:39.047Z,13.75
2022-10-13T02:13:07.103Z,13.82
2022-10-13T02:15:54.210Z,13.77
2022-10-13T02:18:23.822Z,14.50
2022-10-13T02:20:50.676Z,14.95
2022-10-13T02:23:17.834Z,14.50
2022-10-13T02:25:44.711Z,14.32
2022-10-13T02:28:11.670Z,13.40
2022-10-13T02:30:39.431Z,14.60
2022-10-13T02:33:06.155Z,14.43
2022-10-13T02:35:33.624Z,17.20
2022-10-13T02:38:00.431Z,16.42
2022-10-13T02:40:27.066Z,16.42
2022-10-13T02:42:53.653Z,16.35
2022-10-13T02:45:20.374Z,16.73
2022-10-13T02:47:46.939Z,16.00
2022-10-13T02:50:13.631Z,16.85
2022-10-13T02:52:40.174Z,16.58
2022-10-13T02:55:07.787Z,16.40
2022-10-13T02:57:34.635Z,17.13
2022-10-13T03:00:01.210Z,17.25
2022-10-13T03:02:28.468Z,18.15
2022-10-13T03:04:55.364Z,18.52
2022-10-13T03:07:21.895Z,18.38
2022-10-13T03:09:48.741Z,18.20
2022-10-13T03:12:15.535Z,18.98
2022-10-13T03:14:42.116Z,18.58
2022-10-13T03:17:13.176Z,18.30
2022-10-13T03:19:40.049Z,18.52
2022-10-13T03:22:06.581Z,16.88
2022-10-13T03:24:33.146Z,17.60
2022-10-13T03:26:59.715Z,16.13
2022-10-13T03:29:26.317Z,17.38
2022-10-13T03:31:52.853Z,16.70
2022-10-13T03:34:20.335Z,15.07
2022-10-13T03:36:46.924Z,15.60
2022-10-13T03:39:13.834Z,17.40
2022-10-13T03:41:40.436Z,15.43
2022-10-13T03:44:07.642Z,16.10
2022-10-13T03:46:34.218Z,16.40
2022-10-13T03:49:00.809Z,14.73
2022-10-13T03:51:27.364Z,17.45
2022-10-13T03:53:54.267Z,16.50
2022-10-13T03:56:23.320Z,15.48
2022-10-13T03:58:54.782Z,14.93
2022-10-13T04:01:22.742Z,14.65
2022-10-13T04:03:50.536Z,14.88
2022-10-13T04:06:17.570Z,15.35
2022-10-13T04:08:44.105Z,16.15
2022-10-13T04:11:13.331Z,15.80
2022-10-13T04:13:40.406Z,16.15
2022-10-13T04:16:14.303Z,16.48
2022-10-13T04:18:44.435Z,14.88
2022-10-13T04:21:14.783Z,16.05
2022-10-13T04:23:41.480Z,14.20
2022-10-13T04:26:08.252Z,14.55
2022-10-13T04:28:36.036Z,14.95
2022-10-13T04:31:03.402Z,14.80
2022-10-13T04:33:30.194Z,14.45
2022-10-13T04:35:56.907Z,15.35
2022-10-13T04:38:23.554Z,14.77
2022-10-13T04:40:50.490Z,15.30
2022-10-13T04:43:17.288Z,13.40
2022-10-13T04:45:43.951Z,13.48
2022-10-13T04:48:10.571Z,14.45
2022-10-13T04:50:37.746Z,12.43
2022-10-13T04:53:04.344Z,13.00
2022-10-13T04:55:30.932Z,13.73
2022-10-13T04:57:57.487Z,13.13
2022-10-13T05:00:24.117Z,13.70
2022-10-13T05:02:50.759Z,12.68
2022-10-13T05:05:17.421Z,12.90
2022-10-13T05:07:44.001Z,12.73
2022-10-13T05:10:10.584Z,13.70
2022-10-13T05:12:37.137Z,12.30
2022-10-13T05:15:04.053Z,12.85
2022-10-13T05:17:35.016Z,13.90
2022-10-13T05:20:02.238Z,12.68
2022-10-13T05:22:28.804Z,13.25
2022-10-13T05:24:55.393Z,13.52
2022-10-13T05:27:23.196Z,13.10
2022-10-13T05:29:49.780Z,12.38
2022-10-13T05:32:16.429Z,13.00
2022-10-13T05:34:43.072Z,13.35
2022-10-13T05:37:09.649Z,13.55
2022-10-13T05:39:36.229Z,13.38
2022-10-13T05:42:02.833Z,13.48
2022-10-13T05:44:29.909Z,12.40
2022-10-13T05:46:56.980Z,13.85
2022-10-13T05:49:23.556Z,13.48
2022-10-13T05:51:55.741Z,12.38
2022-10-13T05:54:31.049Z,13.50
2022-10-13T05:57:02.389Z,14.15
2022-10-13T05:59:30.321Z,12.00
2022-10-13T06:01:56.962Z,13.27
2022-10-13T06:04:26.491Z,11.70
2022-10-13T06:06:53.180Z,13.65
2022-10-13T06:09:19.783Z,13.75
2022-10-13T06:11:46.384Z,13.95
2022-10-13T06:14:12.981Z,13.45
2022-10-13T06:16:39.589Z,12.25
2022-10-13T06:19:06.306Z,13.73
2022-10-13T06:21:34.860Z,12.73
2022-10-13T06:24:01.498Z,12.10
2022-10-13T06:26:28.077Z,11.25
2022-10-13T06:28:59.282Z,12.60
2022-10-13T06:31:26.599Z,12.20
2022-10-13T06:33:53.224Z,12.30
2022-10-13T06:36:19.801Z,11.27
2022-10-13T06:38:47.099Z,11.63
2022-10-13T06:41:14.389Z,12.23
2022-10-13T06:43:41.314Z,11.90
2022-10-13T06:46:08.008Z,12.48
2022-10-13T06:48:34.664Z,10.60
2022-10-13T06:51:02.937Z,11.82
2022-10-13T06:53:29.518Z,12.02
2022-10-13T06:56:00.011Z,11.57
2022-10-13T06:58:26.799Z,11.00
2022-10-13T07:00:53.819Z,12.30
2022-10-13T07:03:20.712Z,11.00
2022-10-13T07:05:47.360Z,11.88
2022-10-13T07:08:13.994Z,12.55
2022-10-13T07:10:40.844Z,11.27
2022-10-13T07:13:07.453Z,12.38
2022-10-13T07:15:34.157Z,11.38
2022-10-13T07:18:00.757Z,10.45
2022-10-13T07:20:27.347Z,13.40
2022-10-13T07:22:54.140Z,11.27
2022-10-13T07:25:20.750Z,11.88
2022-10-13T07:27:47.332Z,10.85
2022-10-13T07:30:13.957Z,11.88
2022-10-13T07:32:42.132Z,11.18
2022-10-13T07:35:10.095Z,11.35
2022-10-13T07:37:37.140Z,11.15
2022-10-13T07:40:07.207Z,10.20
2022-10-13T07:42:33.786Z,10.88
2022-10-13T07:45:00.371Z,10.75
2022-10-13T07:47:27.013Z,10.40
2022-10-13T07:49:54.761Z,10.52
2022-10-13T07:52:21.766Z,9.60
2022-10-13T07:54:48.731Z,10.55
2022-10-13T07:57:15.424Z,10.38
2022-10-13T07:59:42.011Z,9.90
2022-10-13T08:02:09.561Z,10.18
2022-10-13T08:04:36.509Z,9.98
2022-10-13T08:07:04.097Z,10.65
2022-10-13T08:09:30.696Z,10.90
2022-10-13T08:12:00.583Z,9.30
2022-10-13T08:14:29.186Z,9.68
2022-10-13T08:16:56.291Z,10.10
2022-10-13T08:19:23.867Z,11.80
2022-10-13T08:21:58.279Z,9.18
2022-10-13T08:24:26.357Z,9.15
2022-10-13T08:26:53.013Z,9.43
2022-10-13T08:29:22.489Z,8.35
2022-10-13T08:34:22.407Z,8.50
2022-10-13T08:36:52.670Z,12.07
2022-10-13T08:39:19.270Z,10.10
2022-10-13T08:41:45.862Z,8.60
2022-10-13T08:47:20.185Z,8.10
2022-10-13T08:49:46.827Z,7.00
2022-10-13T08:52:27.496Z,7.28
2022-10-13T08:54:55.722Z,6.97
2022-10-13T08:57:22.754Z,7.05
2022-10-13T08:59:49.765Z,6.80
2022-10-13T09:02:25.063Z,7.05
2022-10-13T09:04:52.652Z,10.82
2022-10-13T09:07:27.253Z,7.28
2022-10-13T09:09:54.944Z,7.88
2022-10-13T09:12:24.903Z,6.63
2022-10-13T09:15:03.042Z,6.43
2022-10-13T09:17:30.286Z,6.53
2022-10-13T09:20:17.015Z,5.72
2022-10-13T09:22:43.980Z,6.32
2022-10-13T09:25:31.731Z,6.28
2022-10-13T09:28:00.663Z,6.75
2022-10-13T09:30:41.325Z,5.47
2022-10-13T09:33:13.734Z,5.63
2022-10-13T09:35:43.167Z,6.30
2022-10-13T09:38:17.690Z,5.72
2022-10-13T09:40:45.042Z,5.47
2022-10-13T09:43:28.718Z,5.93
2022-10-13T09:45:55.419Z,6.85
2022-10-13T09:48:25.765Z,7.13
2022-10-13T09:50:53.835Z,6.95
2022-10-13T09:53:32.224Z,5.18
2022-10-13T09:56:22.738Z,7.45
2022-10-13T09:59:14.701Z,6.47
2022-10-13T10:01:43.942Z,5.93
2022-10-13T10:04:14.446Z,5.82
2022-10-13T10:06:41.125Z,7.80
2022-10-13T10:09:33.423Z,7.38
2022-10-13T10:12:00.956Z,7.53
2022-10-13T10:14:29.407Z,6.80
2022-10-13T10:17:20.703Z,6.80
2022-10-13T10:20:15.230Z,4.93
2022-10-13T10:22:59.953Z,5.78
2022-10-13T10:25:35.699Z,5.90
2022-10-13T10:28:05.089Z,4.85
2022-10-13T10:30:31.713Z,5.15
2022-10-13T10:33:09.190Z,5.28
2022-10-13T10:35:50.869Z,5.72
2022-10-13T10:38:29.436Z,5.80
2022-10-13T10:41:20.841Z,5.10
2022-10-13T10:44:00.760Z,5.40
2022-10-13T10:46:29.633Z,5.70
2022-10-13T10:49:01.637Z,5.88
2022-10-13T10:51:32.028Z,5.17
2022-10-13T10:54:08.291Z,5.95
2022-10-13T10:56:44.878Z,5.72
2022-10-13T10:59:29.271Z,5.65
2022-10-13T11:02:11.442Z,5.50
2022-10-13T11:04:42.294Z,5.30
2022-10-13T11:07:43.744Z,5.18
2022-10-13T11:10:13.160Z,5.22
2022-10-13T11:13:12.597Z,4.70
2022-10-13T11:15:40.525Z,4.75
2022-10-13T11:18:44.645Z,4.63
2022-10-13T11:21:11.205Z,5.43
2022-10-13T11:23:37.787Z,4.50
2022-10-13T11:26:31.322Z,4.82
2022-10-13T11:28:58.688Z,5.05
2022-10-13T11:31:25.202Z,4.68
2022-10-13T11:33:59.492Z,4.28
2022-10-13T11:37:12.739Z,4.30
2022-10-13T11:39:52.001Z,4.63
2022-10-13T11:42:33.782Z,4.70
2022-10-13T11:45:08.752Z,5.55
2022-10-13T11:48:05.020Z,5.00
2022-10-13T11:50:52.859Z,5.43
2022-10-13T11:53:28.100Z,4.45
2022-10-13T11:56:01.580Z,4.30
2022-10-13T11:58:30.295Z,4.38
2022-10-13T12:01:02.025Z,4.10
2022-10-13T12:03:31.943Z,4.68
2022-10-13T12:06:20.606Z,5.07
2022-10-13T12:08:49.112Z,4.40
2022-10-13T12:11:27.109Z,4.97
2022-10-13T12:13:53.854Z,4.28
2022-10-13T12:16:20.402Z,4.20
2022-10-13T12:18:47.064Z,4.05
2022-10-13T12:21:20.202Z,4.07
2022-10-13T12:23:51.007Z,3.42
2022-10-13T12:26:22.975Z,3.75
2022-10-13T12:28:57.347Z,5.00
2022-10-13T12:31:25.917Z,4.10
2022-10-13T12:33:53.876Z,4.10
2022-10-13T12:36:25.932Z,4.78
2022-10-13T12:38:54.216Z,3.97
2022-10-13T12:41:28.973Z,5.80
2022-10-13T12:43:55.661Z,4.35
2022-10-13T12:46:44.910Z,4.47
2022-10-13T12:49:24.314Z,3.75
2022-10-13T12:52:15.309Z,3.38
2022-10-13T12:55:12.661Z,3.80
2022-10-13T12:57:40.333Z,3.75
2022-10-13T13:00:19.472Z,3.25
2022-10-13T13:02:53.671Z,3.58
2022-10-13T13:05:29.595Z,3.70
2022-10-13T13:07:56.202Z,3.53
2022-10-13T13:10:22.769Z,3.30
2022-10-13T13:12:50.144Z,4.20
2022-10-13T13:15:25.673Z,4.40
2022-10-13T13:17:58.301Z,4.00
2022-10-13T13:20:33.297Z,4.38
2022-10-13T13:23:00.749Z,4.25
2022-10-13T13:25:27.334Z,3.28
2022-10-13T13:27:53.946Z,3.72
2022-10-13T13:30:23.506Z,3.50
2022-10-13T13:32:50.631Z,3.75
2022-10-13T13:35:17.352Z,3.97
2022-10-13T13:37:48.236Z,3.47
2022-10-13T13:40:17.038Z,3.58
2022-10-13T13:42:43.702Z,3.40
2022-10-13T13:45:17.752Z,3.33
2022-10-13T13:47:44.396Z,4.30
2022-10-13T13:50:20.677Z,3.30
2022-10-13T13:52:47.588Z,3.05
2022-10-13T13:55:14.398Z,3.38
2022-10-13T13:57:44.566Z,4.00
2022-10-13T14:00:13.091Z,3.80
2022-10-13T14:02:39.957Z,3.83
2022-10-13T14:05:07.596Z,3.95
2022-10-13T14:07:34.378Z,4.32
2022-10-13T14:10:02.318Z,4.22
2022-10-13T14:12:30.759Z,3.83
2022-10-13T14:14:58.526Z,3.47
2022-10-13T14:17:26.118Z,4.15
2022-10-13T14:19:52.731Z,3.17
2022-10-13T14:22:19.432Z,3.42
2022-10-13T14:24:46.067Z,3.78
2022-10-13T14:27:12.662Z,3.42
2022-10-13T14:29:39.216Z,4.07
2022-10-13T14:32:05.905Z,4.47
2022-10-13T14:34:33.640Z,4.32
2022-10-13T14:37:00.233Z,3.45
2022-10-13T14:39:27.060Z,4.20
2022-10-13T14:41:53.643Z,3.92
2022-10-13T14:44:20.222Z,4.53
2022-10-13T14:46:46.856Z,4.70
2022-10-13T14:49:13.423Z,4.53
2022-10-13T14:51:40.070Z,3.90
2022-10-13T14:54:07.033Z,3.90
2022-10-13T14:56:34.058Z,4.45
2022-10-13T14:59:01.998Z,4.10
2022-10-13T15:01:28.676Z,3.85
2022-10-13T15:03:55.488Z,4.55
2022-10-13T15:06:23.739Z,4.72
2022-10-13T15:08:50.566Z,7.30
2022-10-13T15:11:18.335Z,7.25
2022-10-13T15:13:44.964Z,9.23
2022-10-13T15:16:31.259Z,6.50
2022-10-13T15:18:57.833Z,6.85
2022-10-13T15:21:24.474Z,7.28
2022-10-13T15:23:51.130Z,8.18
2022-10-13T15:26:21.066Z,15.73
2022-10-13T15:28:50.157Z,14.57
2022-10-13T15:31:18.157Z,13.18
2022-10-13T15:33:49.751Z,11.45
2022-10-13T15:36:16.376Z,10.05
2022-10-13T15:38:43.259Z,9.43
2022-10-13T15:41:10.337Z,10.75
2022-10-13T15:43:37.301Z,10.60
2022-10-13T15:46:06.020Z,9.93
2022-10-13T15:48:33.025Z,9.90
2022-10-13T15:50:59.761Z,10.60
2022-10-13T15:53:26.644Z,10.98
2022-10-13T15:55:53.239Z,11.57
2022-10-13T15:58:19.837Z,11.43
2022-10-13T16:00:46.430Z,12.20
2022-10-13T16:03:17.255Z,11.73
2022-10-13T16:05:44.709Z,12.38
2022-10-13T16:08:11.507Z,11.48
2022-10-13T16:10:42.283Z,11.45
2022-10-13T16:13:09.852Z,12.30
2022-10-13T16:15:36.393Z,11.80
2022-10-13T16:18:03.053Z,11.98
2022-10-13T16:20:34.497Z,13.15
2022-10-13T16:23:01.616Z,13.82
2022-10-13T16:25:29.341Z,13.95
2022-10-13T16:27:56.217Z,12.45
2022-10-13T16:30:22.830Z,12.02
2022-10-13T16:32:49.518Z,12.43
2022-10-13T16:35:16.202Z,13.23
2022-10-13T16:37:42.794Z,13.00
2022-10-13T16:40:09.813Z,13.63
2022-10-13T16:42:36.395Z,15.15
2022-10-13T16:45:03.272Z,17.65
2022-10-13T16:47:29.830Z,15.25
2022-10-13T16:49:56.384Z,17.05
2022-10-13T16:52:22.969Z,17.77
2022-10-13T16:54:49.525Z,18.02
2022-10-13T16:57:16.122Z,17.77
2022-10-13T16:59:42.720Z,15.68
2022-10-13T17:02:15.572Z,18.65
2022-10-13T17:07:09.178Z,17.10
2022-10-13T17:09:35.732Z,16.40
2022-10-13T17:12:02.375Z,15.32
2022-10-13T17:14:28.911Z,15.80
2022-10-13T17:16:57.916Z,15.30
2022-10-13T17:19:24.831Z,15.05
2022-10-13T17:21:51.400Z,17.10
2022-10-13T17:24:18.434Z,16.58
2022-10-13T17:26:45.029Z,16.73
2022-10-13T17:29:11.620Z,16.08
2022-10-13T17:31:38.230Z,16.45
2022-10-13T17:34:06.236Z,15.73
2022-10-13T17:36:34.314Z,16.75
2022-10-13T17:39:06.367Z,17.35
2022-10-13T17:41:32.997Z,17.45
2022-10-13T17:43:59.560Z,17.50
2022-10-13T17:46:37.546Z,19.25
2022-10-13T17:49:06.040Z,23.60
2022-10-13T17:51:32.592Z,23.48
2022-10-13T17:54:00.041Z,20.95
2022-10-13T17:56:26.884Z,18.75
2022-10-13T17:58:53.672Z,18.33
2022-10-13T18:01:21.429Z,16.58
2022-10-13T18:03:50.663Z,16.52
2022-10-13T18:06:17.889Z,16.50
2022-10-13T18:08:44.676Z,14.35
2022-10-13T18:11:13.456Z,15.48
2022-10-13T18:13:40.390Z,16.05
2022-10-13T18:16:09.146Z,16.30
2022-10-13T18:18:36.029Z,17.17
2022-10-13T18:21:04.428Z,16.60
2022-10-13T18:23:37.701Z,15.40
2022-10-13T18:26:06.786Z,15.48
2022-10-13T18:28:34.570Z,15.38
2022-10-13T18:31:06.185Z,15.98
2022-10-13T18:33:33.085Z,17.90
2022-10-13T18:35:59.736Z,17.05
2022-10-13T18:38:27.017Z,17.38
2022-10-13T18:40:54.413Z,18.42
2022-10-13T18:43:21.188Z,16.55
2022-10-13T18:45:47.851Z,16.08
2022-10-13T18:48:14.391Z,16.00
2022-10-13T18:50:41.096Z,16.75
2022-10-13T18:53:07.713Z,16.98
2022-10-13T18:55:36.153Z,18.27
2022-10-13T18:58:02.797Z,19.15
2022-10-13T19:00:29.379Z,22.48
2022-10-13T19:02:56.304Z,21.35
2022-10-13T19:05:22.840Z,21.20
2022-10-13T19:07:49.469Z,18.27
2022-10-13T19:10:16.186Z,19.35
2022-10-13T19:12:42.772Z,19.02
2022-10-13T19:15:09.433Z,19.80
2022-10-13T19:17:35.989Z,19.67
2022-10-13T19:20:02.726Z,20.27
2022-10-13T19:22:29.299Z,19.70
2022-10-13T19:24:55.913Z,19.17
2022-10-13T19:27:22.892Z,19.27
2022-10-13T19:29:52.145Z,18.25
2022-10-13T19:32:18.744Z,18.55
2022-10-13T19:34:45.313Z,17.98
2022-10-13T19:37:11.955Z,19.10
2022-10-13T19:39:38.583Z,20.15
2022-10-13T19:42:05.174Z,20.63
2022-10-13T19:44:31.768Z,21.30
2022-10-13T19:46:58.730Z,20.52
2022-10-13T19:49:26.459Z,20.67
2022-10-13T19:51:54.102Z,18.77
2022-10-13T19:54:20.980Z,19.85
2022-10-13T19:56:48.453Z,19.98
2022-10-13T19:59:15.581Z,20.10
2022-10-13T20:01:42.235Z,20.15
2022-10-13T20:04:09.270Z,19.17
2022-10-13T20:06:36.548Z,20.55
2022-10-13T20:09:03.952Z,19.58
2022-10-13T20:11:30.645Z,18.70
2022-10-13T20:13:57.391Z,17.90
2022-10-13T20:16:24.871Z,19.83
2022-10-13T20:18:56.825Z,19.83
2022-10-13T20:21:24.380Z,18.75
2022-10-13T20:23:51.437Z,17.65
2022-10-13T20:26:18.496Z,19.23
2022-10-13T20:28:46.352Z,18.40
2022-10-13T20:31:14.593Z,21.08
2022-10-13T20:33:41.322Z,19.92
2022-10-13T20:36:11.327Z,20.40
2022-10-13T20:38:38.069Z,21.02
2022-10-13T20:41:15.269Z,22.20
2022-10-13T20:43:41.835Z,19.98
2022-10-13T20:46:09.038Z,20.52
2022-10-13T20:48:58.173Z,20.75
2022-10-13T20:51:24.261Z,18.88
2022-10-13T20:53:51.059Z,19.67
2022-10-13T20:56:19.977Z,19.95
2022-10-13T20:58:46.969Z,21.00
2022-10-13T21:01:13.717Z,19.30
2022-10-13T21:03:40.411Z,18.92
2022-10-13T21:06:09.191Z,20.30
2022-10-13T21:08:35.820Z,18.52
2022-10-13T21:11:08.005Z,19.70
2022-10-13T21:13:34.864Z,20.85
2022-10-13T21:16:09.062Z,20.45
2022-10-13T21:18:35.691Z,19.13
2022-10-13T21:21:10.403Z,20.00
2022-10-13T21:23:37.893Z,18.80
2022-10-13T21:26:05.835Z,18.95
2022-10-13T21:28:32.541Z,19.83
2022-10-13T21:31:10.751Z,19.20
2022-10-13T21:33:38.673Z,19.05
2022-10-13T21:36:06.721Z,20.65
2022-10-13T21:38:33.322Z,19.80
2022-10-13T21:40:59.973Z,19.48
2022-10-13T21:43:26.557Z,20.13
2022-10-13T21:45:53.144Z,19.75
2022-10-13T21:48:19.716Z,18.75
2022-10-13T21:50:46.277Z,18.42
2022-10-13T21:53:12.995Z,18.33
2022-10-13T21:55:39.566Z,20.10
2022-10-13T21:58:06.148Z,18.95
2022-10-13T22:00:33.252Z,19.67
2022-10-13T22:02:59.914Z,18.90
2022-10-13T22:05:26.458Z,19.33
2022-10-13T22:07:53.307Z,19.25
2022-10-13T22:10:20.019Z,18.85
2022-10-13T22:12:46.759Z,19.58
2022-10-13T22:15:13.327Z,19.58
2022-10-13T22:17:39.908Z,19.45
2022-10-13T22:20:06.694Z,20.55
2022-10-13T22:22:33.265Z,18.95
2022-10-13T22:24:59.873Z,19.30
2022-10-13T22:27:26.459Z,19.08
2022-10-13T22:29:53.029Z,21.58
2022-10-13T22:32:19.582Z,20.33
2022-10-13T22:34:46.155Z,20.05
2022-10-13T22:37:12.735Z,20.77
2022-10-13T22:39:39.301Z,20.10
2022-10-13T22:42:05.934Z,20.58
2022-10-13T22:44:32.480Z,19.48
2022-10-13T22:46:59.050Z,20.25
2022-10-13T22:49:25.641Z,18.85
2022-10-13T22:51:52.201Z,19.20
2022-10-13T22:54:18.757Z,17.70
2022-10-13T22:56:45.356Z,17.77
2022-10-13T22:59:12.337Z,18.38
2022-10-13T23:01:38.901Z,17.80
2022-10-13T23:04:05.697Z,17.58
2022-10-13T23:06:33.699Z,17.70
2022-10-13T23:09:01.805Z,16.40
2022-10-13T23:11:28.605Z,16.63
2022-10-13T23:13:55.241Z,17.65
2022-10-13T23:16:23.140Z,16.08
2022-10-13T23:18:49.862Z,17.60
2022-10-13T23:21:18.122Z,18.10
2022-10-13T23:23:45.101Z,18.10
2022-10-13T23:26:14.281Z,17.50
2022-10-13T23:28:41.463Z,16.25
2022-10-13T23:31:16.055Z,16.98
2022-10-13T23:33:43.048Z,16.73
2022-10-13T23:36:13.569Z,17.75
2022-10-13T23:38:40.204Z,17.13
2022-10-13T23:41:09.442Z,16.38
2022-10-13T23:43:36.061Z,16.80
2022-10-13T23:46:03.271Z,16.33
2022-10-13T23:48:29.925Z,15.73
2022-10-13T23:50:56.546Z,16.83
2022-10-13T23:53:23.400Z,16.48
2022-10-13T23:55:50.049Z,15.30
2022-10-13T23:58:16.658Z,15.88
